sensor_id;sensor_type;location;lat;lon;timestamp;P1;durP1;ratioP1;P2;durP2;ratioP2
9260;SDS011;4667;42.726;23.252;2023-06-22T00:01:12;8.93;;;6.70;;
9260;SDS011;4667;42.726;23.252;2023-06-22T00:03:39;8.30;;;6.20;;
9260;SDS011;4667;42.726;23.252;2023-06-22T00:06:06;9.87;;;6.50;;
9260;SDS011;4667;42.726;23.252;2023-06-22T00:08:32;12.50;;;7.13;;
9260;SDS011;4667;42.726;23.252;2023-06-22T00:11:01;8.63;;;6.97;;
9260;SDS011;4667;42.726;23.252;2023-06-22T00:13:27;11.23;;;7.40;;
9260;SDS011;4667;42.726;23.252;2023-06-22T00:15:54;7.97;;;6.83;;
9260;SDS011;4667;42.726;23.252;2023-06-22T00:18:21;9.30;;;6.97;;
9260;SDS011;4667;42.726;23.252;2023-06-22T00:20:52;9.03;;;7.20;;
9260;SDS011;4667;42.726;23.252;2023-06-22T01:55:30;10.13;;;7.23;;
9260;SDS011;4667;42.726;23.252;2023-06-22T01:57:57;12.60;;;8.07;;
9260;SDS011;4667;42.726;23.252;2023-06-22T02:00:24;10.43;;;7.80;;
9260;SDS011;4667;42.726;23.252;2023-06-22T02:02:54;9.90;;;7.73;;
9260;SDS011;4667;42.726;23.252;2023-06-22T02:05:26;12.47;;;8.43;;
9260;SDS011;4667;42.726;23.252;2023-06-22T02:08:00;9.23;;;7.10;;
9260;SDS011;4667;42.726;23.252;2023-06-22T02:10:34;10.63;;;7.37;;
9260;SDS011;4667;42.726;23.252;2023-06-22T02:13:06;9.67;;;7.80;;
9260;SDS011;4667;42.726;23.252;2023-06-22T02:15:34;9.27;;;6.90;;
9260;SDS011;4667;42.726;23.252;2023-06-22T02:18:01;17.77;;;9.97;;
9260;SDS011;4667;42.726;23.252;2023-06-22T02:20:28;12.83;;;8.83;;
9260;SDS011;4667;42.726;23.252;2023-06-22T02:22:56;11.40;;;7.83;;
9260;SDS011;4667;42.726;23.252;2023-06-22T02:25:24;11.47;;;8.23;;
9260;SDS011;4667;42.726;23.252;2023-06-22T02:27:52;12.03;;;7.60;;
9260;SDS011;4667;42.726;23.252;2023-06-22T02:30:19;12.87;;;8.47;;
9260;SDS011;4667;42.726;23.252;2023-06-22T02:32:46;10.43;;;6.70;;
9260;SDS011;4667;42.726;23.252;2023-06-22T02:35:12;9.17;;;7.03;;
9260;SDS011;4667;42.726;23.252;2023-06-22T02:37:39;10.33;;;6.70;;
9260;SDS011;4667;42.726;23.252;2023-06-22T02:40:07;19.73;;;6.97;;
9260;SDS011;4667;42.726;23.252;2023-06-22T02:42:35;8.30;;;6.53;;
9260;SDS011;4667;42.726;23.252;2023-06-22T02:45:04;8.60;;;6.73;;
9260;SDS011;4667;42.726;23.252;2023-06-22T02:47:31;8.90;;;7.30;;
9260;SDS011;4667;42.726;23.252;2023-06-22T02:49:58;10.07;;;6.90;;
9260;SDS011;4667;42.726;23.252;2023-06-22T02:52:25;8.73;;;6.70;;
9260;SDS011;4667;42.726;23.252;2023-06-22T02:54:52;9.00;;;6.73;;
9260;SDS011;4667;42.726;23.252;2023-06-22T02:57:19;10.90;;;6.67;;
9260;SDS011;4667;42.726;23.252;2023-06-22T02:59:45;10.37;;;7.73;;
9260;SDS011;4667;42.726;23.252;2023-06-22T03:02:14;15.03;;;7.77;;
9260;SDS011;4667;42.726;23.252;2023-06-22T03:04:40;9.30;;;6.83;;
9260;SDS011;4667;42.726;23.252;2023-06-22T03:07:07;8.87;;;6.33;;
9260;SDS011;4667;42.726;23.252;2023-06-22T03:09:34;8.73;;;6.47;;
9260;SDS011;4667;42.726;23.252;2023-06-22T03:12:01;9.33;;;7.07;;
9260;SDS011;4667;42.726;23.252;2023-06-22T03:14:28;11.77;;;7.17;;
9260;SDS011;4667;42.726;23.252;2023-06-22T03:16:55;10.50;;;7.07;;
9260;SDS011;4667;42.726;23.252;2023-06-22T03:19:29;11.17;;;7.50;;
9260;SDS011;4667;42.726;23.252;2023-06-22T03:21:57;11.30;;;6.97;;
9260;SDS011;4667;42.726;23.252;2023-06-22T03:24:24;10.03;;;7.33;;
9260;SDS011;4667;42.726;23.252;2023-06-22T03:26:53;8.73;;;6.40;;
9260;SDS011;4667;42.726;23.252;2023-06-22T03:29:20;10.20;;;7.30;;
9260;SDS011;4667;42.726;23.252;2023-06-22T03:31:47;11.80;;;7.23;;
9260;SDS011;4667;42.726;23.252;2023-06-22T03:34:13;10.60;;;7.40;;
9260;SDS011;4667;42.726;23.252;2023-06-22T03:36:42;8.60;;;6.60;;
9260;SDS011;4667;42.726;23.252;2023-06-22T03:39:10;11.47;;;7.67;;
9260;SDS011;4667;42.726;23.252;2023-06-22T03:41:37;10.33;;;7.87;;
9260;SDS011;4667;42.726;23.252;2023-06-22T03:44:04;10.63;;;7.77;;
9260;SDS011;4667;42.726;23.252;2023-06-22T03:46:30;10.20;;;6.80;;
9260;SDS011;4667;42.726;23.252;2023-06-22T03:48:57;11.73;;;7.57;;
9260;SDS011;4667;42.726;23.252;2023-06-22T03:51:24;11.53;;;6.60;;
9260;SDS011;4667;42.726;23.252;2023-06-22T03:53:52;8.93;;;6.93;;
9260;SDS011;4667;42.726;23.252;2023-06-22T03:56:19;11.57;;;6.67;;
9260;SDS011;4667;42.726;23.252;2023-06-22T03:58:46;9.13;;;6.50;;
9260;SDS011;4667;42.726;23.252;2023-06-22T04:01:13;10.13;;;6.67;;
9260;SDS011;4667;42.726;23.252;2023-06-22T04:03:42;8.57;;;6.87;;
9260;SDS011;4667;42.726;23.252;2023-06-22T04:06:09;9.23;;;7.13;;
9260;SDS011;4667;42.726;23.252;2023-06-22T04:08:35;11.93;;;8.13;;
9260;SDS011;4667;42.726;23.252;2023-06-22T04:11:06;11.07;;;7.57;;
9260;SDS011;4667;42.726;23.252;2023-06-22T04:13:33;11.73;;;7.90;;
9260;SDS011;4667;42.726;23.252;2023-06-22T04:15:59;10.47;;;7.47;;
9260;SDS011;4667;42.726;23.252;2023-06-22T04:18:27;8.73;;;6.13;;
9260;SDS011;4667;42.726;23.252;2023-06-22T04:20:53;10.60;;;7.83;;
9260;SDS011;4667;42.726;23.252;2023-06-22T04:23:20;10.50;;;7.77;;
9260;SDS011;4667;42.726;23.252;2023-06-22T04:25:47;11.63;;;8.03;;
9260;SDS011;4667;42.726;23.252;2023-06-22T04:28:15;11.30;;;8.23;;
9260;SDS011;4667;42.726;23.252;2023-06-22T04:30:42;13.10;;;7.73;;
9260;SDS011;4667;42.726;23.252;2023-06-22T04:33:12;11.20;;;7.20;;
9260;SDS011;4667;42.726;23.252;2023-06-22T04:35:39;14.23;;;8.50;;
9260;SDS011;4667;42.726;23.252;2023-06-22T04:38:07;12.57;;;8.40;;
9260;SDS011;4667;42.726;23.252;2023-06-22T04:40:35;11.90;;;8.50;;
9260;SDS011;4667;42.726;23.252;2023-06-22T04:43:05;13.03;;;8.53;;
9260;SDS011;4667;42.726;23.252;2023-06-22T04:45:37;13.37;;;8.30;;
9260;SDS011;4667;42.726;23.252;2023-06-22T04:48:05;13.10;;;8.80;;
9260;SDS011;4667;42.726;23.252;2023-06-22T04:50:33;10.27;;;7.63;;
9260;SDS011;4667;42.726;23.252;2023-06-22T04:53:00;12.87;;;7.97;;
9260;SDS011;4667;42.726;23.252;2023-06-22T04:55:30;10.60;;;7.90;;
9260;SDS011;4667;42.726;23.252;2023-06-22T04:57:57;11.53;;;8.57;;
9260;SDS011;4667;42.726;23.252;2023-06-22T05:00:29;12.47;;;8.43;;
9260;SDS011;4667;42.726;23.252;2023-06-22T05:02:58;13.30;;;8.80;;
9260;SDS011;4667;42.726;23.252;2023-06-22T05:05:26;15.30;;;8.57;;
9260;SDS011;4667;42.726;23.252;2023-06-22T05:07:53;14.43;;;8.00;;
9260;SDS011;4667;42.726;23.252;2023-06-22T05:10:25;16.17;;;9.03;;
9260;SDS011;4667;42.726;23.252;2023-06-22T05:12:52;11.70;;;8.43;;
9260;SDS011;4667;42.726;23.252;2023-06-22T05:15:19;9.43;;;7.73;;
9260;SDS011;4667;42.726;23.252;2023-06-22T05:17:47;10.37;;;7.77;;
9260;SDS011;4667;42.726;23.252;2023-06-22T05:20:15;17.30;;;8.23;;
9260;SDS011;4667;42.726;23.252;2023-06-22T05:22:43;11.80;;;7.90;;
9260;SDS011;4667;42.726;23.252;2023-06-22T05:25:10;11.63;;;8.48;;
9260;SDS011;4667;42.726;23.252;2023-06-22T05:27:38;13.33;;;8.70;;
9260;SDS011;4667;42.726;23.252;2023-06-22T05:30:05;15.87;;;9.90;;
9260;SDS011;4667;42.726;23.252;2023-06-22T05:32:41;14.70;;;9.88;;
9260;SDS011;4667;42.726;23.252;2023-06-22T05:35:09;19.43;;;9.07;;
9260;SDS011;4667;42.726;23.252;2023-06-22T05:37:37;11.47;;;8.20;;
9260;SDS011;4667;42.726;23.252;2023-06-22T05:40:05;11.63;;;8.70;;
9260;SDS011;4667;42.726;23.252;2023-06-22T05:42:32;11.07;;;8.38;;
9260;SDS011;4667;42.726;23.252;2023-06-22T05:44:59;10.37;;;7.70;;
9260;SDS011;4667;42.726;23.252;2023-06-22T05:47:26;12.67;;;7.43;;
9260;SDS011;4667;42.726;23.252;2023-06-22T05:49:53;10.70;;;8.37;;
9260;SDS011;4667;42.726;23.252;2023-06-22T05:52:19;10.40;;;8.23;;
9260;SDS011;4667;42.726;23.252;2023-06-22T05:54:48;9.80;;;7.38;;
9260;SDS011;4667;42.726;23.252;2023-06-22T05:57:15;14.73;;;8.07;;
9260;SDS011;4667;42.726;23.252;2023-06-22T05:59:42;11.57;;;8.93;;
9260;SDS011;4667;42.726;23.252;2023-06-22T06:02:08;10.18;;;8.57;;
9260;SDS011;4667;42.726;23.252;2023-06-22T06:04:35;10.27;;;7.95;;
9260;SDS011;4667;42.726;23.252;2023-06-22T06:07:02;13.88;;;8.68;;
9260;SDS011;4667;42.726;23.252;2023-06-22T06:09:29;10.03;;;8.10;;
9260;SDS011;4667;42.726;23.252;2023-06-22T06:11:57;11.93;;;8.43;;
9260;SDS011;4667;42.726;23.252;2023-06-22T06:14:24;11.52;;;8.25;;
9260;SDS011;4667;42.726;23.252;2023-06-22T06:16:51;15.57;;;8.90;;
9260;SDS011;4667;42.726;23.252;2023-06-22T06:19:17;9.23;;;7.55;;
9260;SDS011;4667;42.726;23.252;2023-06-22T06:21:44;12.05;;;8.60;;
9260;SDS011;4667;42.726;23.252;2023-06-22T06:24:11;12.55;;;8.80;;
9260;SDS011;4667;42.726;23.252;2023-06-22T06:26:38;12.05;;;8.95;;
9260;SDS011;4667;42.726;23.252;2023-06-22T06:29:06;10.10;;;7.57;;
9260;SDS011;4667;42.726;23.252;2023-06-22T06:31:33;11.82;;;8.85;;
9260;SDS011;4667;42.726;23.252;2023-06-22T06:34:01;15.15;;;8.63;;
9260;SDS011;4667;42.726;23.252;2023-06-22T06:36:30;12.00;;;8.50;;
9260;SDS011;4667;42.726;23.252;2023-06-22T06:38:57;12.82;;;7.80;;
9260;SDS011;4667;42.726;23.252;2023-06-22T06:41:24;16.65;;;8.65;;
9260;SDS011;4667;42.726;23.252;2023-06-22T06:43:50;11.02;;;8.43;;
9260;SDS011;4667;42.726;23.252;2023-06-22T06:46:19;10.48;;;7.97;;
9260;SDS011;4667;42.726;23.252;2023-06-22T06:48:46;11.95;;;9.00;;
9260;SDS011;4667;42.726;23.252;2023-06-22T06:51:13;18.60;;;9.00;;
9260;SDS011;4667;42.726;23.252;2023-06-22T06:53:40;15.57;;;8.13;;
9260;SDS011;4667;42.726;23.252;2023-06-22T06:56:07;21.92;;;8.68;;
9260;SDS011;4667;42.726;23.252;2023-06-22T06:58:35;12.35;;;8.15;;
9260;SDS011;4667;42.726;23.252;2023-06-22T07:01:05;10.65;;;7.57;;
9260;SDS011;4667;42.726;23.252;2023-06-22T07:03:35;10.25;;;6.97;;
9260;SDS011;4667;42.726;23.252;2023-06-22T07:06:02;10.20;;;7.63;;
9260;SDS011;4667;42.726;23.252;2023-06-22T07:08:31;12.77;;;8.05;;
9260;SDS011;4667;42.726;23.252;2023-06-22T07:11:01;8.05;;;6.50;;
9260;SDS011;4667;42.726;23.252;2023-06-22T07:13:29;9.57;;;6.65;;
9260;SDS011;4667;42.726;23.252;2023-06-22T07:15:56;10.05;;;7.10;;
9260;SDS011;4667;42.726;23.252;2023-06-22T07:18:24;8.07;;;6.30;;
9260;SDS011;4667;42.726;23.252;2023-06-22T07:20:55;12.05;;;7.15;;
9260;SDS011;4667;42.726;23.252;2023-06-22T07:23:23;7.50;;;5.63;;
9260;SDS011;4667;42.726;23.252;2023-06-22T07:25:50;9.02;;;5.53;;
9260;SDS011;4667;42.726;23.252;2023-06-22T07:28:17;10.65;;;5.65;;
9260;SDS011;4667;42.726;23.252;2023-06-22T07:30:44;9.85;;;5.82;;
9260;SDS011;4667;42.726;23.252;2023-06-22T07:33:12;7.93;;;6.32;;
9260;SDS011;4667;42.726;23.252;2023-06-22T07:35:39;10.07;;;7.90;;
9260;SDS011;4667;42.726;23.252;2023-06-22T07:38:07;7.45;;;6.32;;
9260;SDS011;4667;42.726;23.252;2023-06-22T07:40:34;9.07;;;6.70;;
9260;SDS011;4667;42.726;23.252;2023-06-22T07:43:01;7.13;;;6.22;;
9260;SDS011;4667;42.726;23.252;2023-06-22T07:45:28;9.20;;;6.63;;
9260;SDS011;4667;42.726;23.252;2023-06-22T07:47:55;9.80;;;6.95;;
9260;SDS011;4667;42.726;23.252;2023-06-22T07:50:22;9.45;;;7.25;;
9260;SDS011;4667;42.726;23.252;2023-06-22T07:52:48;9.65;;;7.20;;
9260;SDS011;4667;42.726;23.252;2023-06-22T07:55:19;10.02;;;6.95;;
9260;SDS011;4667;42.726;23.252;2023-06-22T07:57:46;8.63;;;6.93;;
9260;SDS011;4667;42.726;23.252;2023-06-22T08:00:13;9.20;;;6.90;;
9260;SDS011;4667;42.726;23.252;2023-06-22T08:02:42;9.52;;;7.78;;
9260;SDS011;4667;42.726;23.252;2023-06-22T08:05:10;8.45;;;7.25;;
9260;SDS011;4667;42.726;23.252;2023-06-22T08:07:38;10.57;;;8.02;;
9260;SDS011;4667;42.726;23.252;2023-06-22T08:10:10;9.88;;;7.72;;
9260;SDS011;4667;42.726;23.252;2023-06-22T08:12:38;7.57;;;6.80;;
9260;SDS011;4667;42.726;23.252;2023-06-22T08:15:06;13.48;;;7.80;;
9260;SDS011;4667;42.726;23.252;2023-06-22T08:17:34;10.73;;;7.85;;
9260;SDS011;4667;42.726;23.252;2023-06-22T08:20:02;11.68;;;8.75;;
9260;SDS011;4667;42.726;23.252;2023-06-22T08:22:34;9.13;;;7.05;;
9260;SDS011;4667;42.726;23.252;2023-06-22T08:25:01;10.60;;;7.45;;
9260;SDS011;4667;42.726;23.252;2023-06-22T08:27:29;13.52;;;8.00;;
9260;SDS011;4667;42.726;23.252;2023-06-22T08:29:58;10.48;;;7.30;;
9260;SDS011;4667;42.726;23.252;2023-06-22T08:32:25;10.43;;;7.63;;
9260;SDS011;4667;42.726;23.252;2023-06-22T08:34:52;9.98;;;7.20;;
9260;SDS011;4667;42.726;23.252;2023-06-22T08:37:19;11.63;;;8.13;;
9260;SDS011;4667;42.726;23.252;2023-06-22T08:39:46;8.70;;;7.15;;
9260;SDS011;4667;42.726;23.252;2023-06-22T08:42:13;8.35;;;7.03;;
9260;SDS011;4667;42.726;23.252;2023-06-22T08:44:40;11.35;;;7.18;;
9260;SDS011;4667;42.726;23.252;2023-06-22T08:47:08;10.85;;;6.88;;
9260;SDS011;4667;42.726;23.252;2023-06-22T08:49:35;8.68;;;6.90;;
9260;SDS011;4667;42.726;23.252;2023-06-22T08:52:02;7.35;;;6.13;;
9260;SDS011;4667;42.726;23.252;2023-06-22T08:54:28;7.72;;;6.15;;
9260;SDS011;4667;42.726;23.252;2023-06-22T08:56:59;12.40;;;7.07;;
9260;SDS011;4667;42.726;23.252;2023-06-22T08:59:26;8.85;;;5.93;;
9260;SDS011;4667;42.726;23.252;2023-06-22T09:01:55;10.02;;;6.20;;
9260;SDS011;4667;42.726;23.252;2023-06-22T09:04:23;7.85;;;6.05;;
9260;SDS011;4667;42.726;23.252;2023-06-22T09:06:50;9.23;;;6.88;;
9260;SDS011;4667;42.726;23.252;2023-06-22T09:09:17;8.43;;;6.22;;
9260;SDS011;4667;42.726;23.252;2023-06-22T09:11:44;9.02;;;6.20;;
9260;SDS011;4667;42.726;23.252;2023-06-22T09:14:11;6.47;;;5.22;;
9260;SDS011;4667;42.726;23.252;2023-06-22T09:16:38;8.65;;;5.88;;
9260;SDS011;4667;42.726;23.252;2023-06-22T09:19:05;7.43;;;6.03;;
9260;SDS011;4667;42.726;23.252;2023-06-22T09:21:34;7.35;;;5.47;;
9260;SDS011;4667;42.726;23.252;2023-06-22T09:24:01;6.85;;;5.60;;
9260;SDS011;4667;42.726;23.252;2023-06-22T09:26:27;9.18;;;5.43;;
9260;SDS011;4667;42.726;23.252;2023-06-22T09:28:54;7.72;;;5.80;;
9260;SDS011;4667;42.726;23.252;2023-06-22T09:31:21;5.85;;;4.95;;
9260;SDS011;4667;42.726;23.252;2023-06-22T09:33:50;6.47;;;5.32;;
9260;SDS011;4667;42.726;23.252;2023-06-22T09:36:18;7.07;;;5.30;;
9260;SDS011;4667;42.726;23.252;2023-06-22T09:38:49;8.52;;;5.93;;
9260;SDS011;4667;42.726;23.252;2023-06-22T09:41:23;7.03;;;5.82;;
9260;SDS011;4667;42.726;23.252;2023-06-22T09:43:50;10.70;;;6.75;;
9260;SDS011;4667;42.726;23.252;2023-06-22T09:46:17;6.40;;;5.13;;
9260;SDS011;4667;42.726;23.252;2023-06-22T09:48:46;7.25;;;5.20;;
9260;SDS011;4667;42.726;23.252;2023-06-22T09:51:13;6.95;;;5.55;;
9260;SDS011;4667;42.726;23.252;2023-06-22T09:53:40;7.88;;;5.80;;
9260;SDS011;4667;42.726;23.252;2023-06-22T09:56:09;5.55;;;5.05;;
9260;SDS011;4667;42.726;23.252;2023-06-22T09:58:39;7.22;;;5.65;;
9260;SDS011;4667;42.726;23.252;2023-06-22T10:01:06;6.45;;;5.60;;
9260;SDS011;4667;42.726;23.252;2023-06-22T10:03:33;5.40;;;4.88;;
9260;SDS011;4667;42.726;23.252;2023-06-22T10:06:00;6.40;;;5.10;;
9260;SDS011;4667;42.726;23.252;2023-06-22T10:08:26;7.85;;;5.47;;
9260;SDS011;4667;42.726;23.252;2023-06-22T10:10:53;5.75;;;4.75;;
9260;SDS011;4667;42.726;23.252;2023-06-22T10:13:21;7.38;;;5.07;;
9260;SDS011;4667;42.726;23.252;2023-06-22T10:15:48;5.82;;;4.65;;
9260;SDS011;4667;42.726;23.252;2023-06-22T10:18:16;6.45;;;5.13;;
9260;SDS011;4667;42.726;23.252;2023-06-22T10:20:43;5.20;;;4.70;;
9260;SDS011;4667;42.726;23.252;2023-06-22T10:23:09;6.05;;;5.07;;
9260;SDS011;4667;42.726;23.252;2023-06-22T10:25:36;7.05;;;5.35;;
9260;SDS011;4667;42.726;23.252;2023-06-22T10:28:03;5.57;;;5.00;;
9260;SDS011;4667;42.726;23.252;2023-06-22T10:30:31;6.35;;;5.03;;
9260;SDS011;4667;42.726;23.252;2023-06-22T10:32:58;7.13;;;5.45;;
9260;SDS011;4667;42.726;23.252;2023-06-22T10:35:24;6.88;;;5.20;;
9260;SDS011;4667;42.726;23.252;2023-06-22T10:37:52;9.50;;;7.03;;
9260;SDS011;4667;42.726;23.252;2023-06-22T10:40:19;7.55;;;5.18;;
9260;SDS011;4667;42.726;23.252;2023-06-22T10:42:46;7.15;;;5.55;;
9260;SDS011;4667;42.726;23.252;2023-06-22T10:45:13;6.70;;;5.25;;
9260;SDS011;4667;42.726;23.252;2023-06-22T10:47:41;6.95;;;5.95;;
9260;SDS011;4667;42.726;23.252;2023-06-22T10:50:08;7.13;;;5.50;;
9260;SDS011;4667;42.726;23.252;2023-06-22T10:52:35;6.00;;;5.18;;
9260;SDS011;4667;42.726;23.252;2023-06-22T10:55:02;7.38;;;5.53;;
9260;SDS011;4667;42.726;23.252;2023-06-22T10:57:29;5.22;;;4.72;;
9260;SDS011;4667;42.726;23.252;2023-06-22T10:59:56;7.63;;;5.85;;
9260;SDS011;4667;42.726;23.252;2023-06-22T11:02:23;9.10;;;5.80;;
9260;SDS011;4667;42.726;23.252;2023-06-22T11:04:51;5.80;;;4.97;;
9260;SDS011;4667;42.726;23.252;2023-06-22T11:07:18;7.43;;;5.60;;
9260;SDS011;4667;42.726;23.252;2023-06-22T11:09:44;6.78;;;5.32;;
9260;SDS011;4667;42.726;23.252;2023-06-22T11:12:11;8.38;;;5.30;;
9260;SDS011;4667;42.726;23.252;2023-06-22T11:14:38;5.30;;;4.78;;
9260;SDS011;4667;42.726;23.252;2023-06-22T11:17:05;5.85;;;5.25;;
9260;SDS011;4667;42.726;23.252;2023-06-22T11:19:32;6.95;;;5.75;;
9260;SDS011;4667;42.726;23.252;2023-06-22T11:22:00;6.60;;;5.88;;
9260;SDS011;4667;42.726;23.252;2023-06-22T11:24:27;5.88;;;5.03;;
9260;SDS011;4667;42.726;23.252;2023-06-22T11:26:53;5.72;;;4.53;;
9260;SDS011;4667;42.726;23.252;2023-06-22T11:29:20;8.43;;;6.38;;
9260;SDS011;4667;42.726;23.252;2023-06-22T11:31:47;6.25;;;5.25;;
9260;SDS011;4667;42.726;23.252;2023-06-22T11:34:14;6.45;;;5.03;;
9260;SDS011;4667;42.726;23.252;2023-06-22T11:36:40;6.15;;;5.28;;
9260;SDS011;4667;42.726;23.252;2023-06-22T11:39:09;7.53;;;6.25;;
9260;SDS011;4667;42.726;23.252;2023-06-22T11:41:36;9.55;;;6.10;;
9260;SDS011;4667;42.726;23.252;2023-06-22T11:44:02;10.48;;;6.00;;
9260;SDS011;4667;42.726;23.252;2023-06-22T11:46:29;8.52;;;6.32;;
9260;SDS011;4667;42.726;23.252;2023-06-22T11:48:57;10.55;;;6.63;;
9260;SDS011;4667;42.726;23.252;2023-06-22T11:51:23;10.02;;;6.97;;
9260;SDS011;4667;42.726;23.252;2023-06-22T11:53:50;8.90;;;6.75;;
9260;SDS011;4667;42.726;23.252;2023-06-22T11:56:18;9.65;;;7.40;;
9260;SDS011;4667;42.726;23.252;2023-06-22T11:58:45;9.00;;;6.38;;
9260;SDS011;4667;42.726;23.252;2023-06-22T12:01:11;9.70;;;6.80;;
9260;SDS011;4667;42.726;23.252;2023-06-22T12:03:40;9.15;;;6.80;;
9260;SDS011;4667;42.726;23.252;2023-06-22T12:06:08;8.30;;;6.72;;
9260;SDS011;4667;42.726;23.252;2023-06-22T12:08:35;8.40;;;6.85;;
9260;SDS011;4667;42.726;23.252;2023-06-22T12:11:01;10.23;;;7.15;;
9260;SDS011;4667;42.726;23.252;2023-06-22T12:13:30;10.95;;;7.20;;
9260;SDS011;4667;42.726;23.252;2023-06-22T12:15:56;8.98;;;7.00;;
9260;SDS011;4667;42.726;23.252;2023-06-22T12:18:23;8.45;;;6.20;;
9260;SDS011;4667;42.726;23.252;2023-06-22T12:20:50;12.27;;;8.40;;
9260;SDS011;4667;42.726;23.252;2023-06-22T12:23:16;9.75;;;7.55;;
9260;SDS011;4667;42.726;23.252;2023-06-22T12:25:45;12.23;;;7.70;;
9260;SDS011;4667;42.726;23.252;2023-06-22T12:28:11;11.32;;;5.78;;
9260;SDS011;4667;42.726;23.252;2023-06-22T12:30:40;10.60;;;5.10;;
9260;SDS011;4667;42.726;23.252;2023-06-22T12:33:07;7.07;;;4.38;;
9260;SDS011;4667;42.726;23.252;2023-06-22T12:35:34;6.93;;;4.38;;
9260;SDS011;4667;42.726;23.252;2023-06-22T12:38:00;9.73;;;4.95;;
9260;SDS011;4667;42.726;23.252;2023-06-22T12:40:28;7.20;;;4.40;;
9260;SDS011;4667;42.726;23.252;2023-06-22T12:42:54;7.32;;;3.42;;
9260;SDS011;4667;42.726;23.252;2023-06-22T12:45:21;8.10;;;4.10;;
9260;SDS011;4667;42.726;23.252;2023-06-22T12:47:49;4.60;;;3.63;;
9260;SDS011;4667;42.726;23.252;2023-06-22T12:50:16;7.78;;;3.65;;
9260;SDS011;4667;42.726;23.252;2023-06-22T12:52:43;7.35;;;3.47;;
9260;SDS011;4667;42.726;23.252;2023-06-22T12:55:09;4.18;;;3.28;;
9260;SDS011;4667;42.726;23.252;2023-06-22T12:57:36;5.35;;;3.53;;
9260;SDS011;4667;42.726;23.252;2023-06-22T13:00:03;5.75;;;4.20;;
9260;SDS011;4667;42.726;23.252;2023-06-22T13:02:32;7.63;;;4.30;;
9260;SDS011;4667;42.726;23.252;2023-06-22T13:05:01;6.03;;;4.32;;
9260;SDS011;4667;42.726;23.252;2023-06-22T13:07:29;7.68;;;4.82;;
9260;SDS011;4667;42.726;23.252;2023-06-22T13:09:56;6.03;;;4.82;;
9260;SDS011;4667;42.726;23.252;2023-06-22T13:12:23;8.77;;;4.55;;
9260;SDS011;4667;42.726;23.252;2023-06-22T13:14:50;6.45;;;4.95;;
9260;SDS011;4667;42.726;23.252;2023-06-22T13:17:16;7.65;;;5.68;;
9260;SDS011;4667;42.726;23.252;2023-06-22T13:19:43;9.32;;;5.32;;
9260;SDS011;4667;42.726;23.252;2023-06-22T13:24:55;7.47;;;4.95;;
9260;SDS011;4667;42.726;23.252;2023-06-22T13:27:22;8.52;;;5.88;;
9260;SDS011;4667;42.726;23.252;2023-06-22T13:29:49;9.32;;;6.00;;
9260;SDS011;4667;42.726;23.252;2023-06-22T13:32:16;8.15;;;6.05;;
9260;SDS011;4667;42.726;23.252;2023-06-22T13:34:42;9.93;;;5.70;;
9260;SDS011;4667;42.726;23.252;2023-06-22T13:37:09;10.02;;;5.70;;
9260;SDS011;4667;42.726;23.252;2023-06-22T13:39:38;10.77;;;4.88;;
9260;SDS011;4667;42.726;23.252;2023-06-22T13:42:05;7.22;;;5.25;;
9260;SDS011;4667;42.726;23.252;2023-06-22T13:44:32;7.32;;;5.10;;
9260;SDS011;4667;42.726;23.252;2023-06-22T13:46:59;9.00;;;5.85;;
9260;SDS011;4667;42.726;23.252;2023-06-22T13:49:26;9.30;;;6.03;;
9260;SDS011;4667;42.726;23.252;2023-06-22T13:51:53;7.18;;;5.63;;
9260;SDS011;4667;42.726;23.252;2023-06-22T13:54:19;10.50;;;6.45;;
9260;SDS011;4667;42.726;23.252;2023-06-22T13:56:47;12.43;;;7.82;;
9260;SDS011;4667;42.726;23.252;2023-06-22T13:59:14;7.82;;;6.00;;
9260;SDS011;4667;42.726;23.252;2023-06-22T14:01:41;9.18;;;6.40;;
9260;SDS011;4667;42.726;23.252;2023-06-22T14:04:08;12.73;;;6.85;;
9260;SDS011;4667;42.726;23.252;2023-06-22T14:06:35;10.85;;;5.97;;
9260;SDS011;4667;42.726;23.252;2023-06-22T14:09:01;7.20;;;5.45;;
9260;SDS011;4667;42.726;23.252;2023-06-22T14:11:28;8.35;;;6.25;;
9260;SDS011;4667;42.726;23.252;2023-06-22T14:13:56;8.65;;;5.85;;
9260;SDS011;4667;42.726;23.252;2023-06-22T14:16:23;9.93;;;6.25;;
9260;SDS011;4667;42.726;23.252;2023-06-22T14:18:50;8.95;;;6.35;;
9260;SDS011;4667;42.726;23.252;2023-06-22T14:21:16;7.82;;;6.20;;
9260;SDS011;4667;42.726;23.252;2023-06-22T14:23:44;9.82;;;6.25;;
9260;SDS011;4667;42.726;23.252;2023-06-22T14:26:14;10.85;;;8.18;;
9260;SDS011;4667;42.726;23.252;2023-06-22T14:28:42;13.73;;;7.50;;
9260;SDS011;4667;42.726;23.252;2023-06-22T14:31:13;11.20;;;7.75;;
9260;SDS011;4667;42.726;23.252;2023-06-22T14:33:40;10.10;;;7.10;;
9260;SDS011;4667;42.726;23.252;2023-06-22T14:36:07;8.52;;;6.63;;
9260;SDS011;4667;42.726;23.252;2023-06-22T14:38:33;9.35;;;7.05;;
9260;SDS011;4667;42.726;23.252;2023-06-22T14:41:00;12.68;;;8.10;;
9260;SDS011;4667;42.726;23.252;2023-06-22T14:43:27;10.35;;;7.60;;
9260;SDS011;4667;42.726;23.252;2023-06-22T14:45:53;11.32;;;6.88;;
9260;SDS011;4667;42.726;23.252;2023-06-22T14:51:07;10.90;;;6.47;;
9260;SDS011;4667;42.726;23.252;2023-06-22T14:53:34;10.15;;;6.22;;
9260;SDS011;4667;42.726;23.252;2023-06-22T14:56:01;9.02;;;5.05;;
9260;SDS011;4667;42.726;23.252;2023-06-22T14:58:28;12.88;;;6.07;;
9260;SDS011;4667;42.726;23.252;2023-06-22T15:00:55;8.15;;;6.32;;
9260;SDS011;4667;42.726;23.252;2023-06-22T15:03:21;9.07;;;6.15;;
9260;SDS011;4667;42.726;23.252;2023-06-22T15:05:54;13.38;;;6.20;;
9260;SDS011;4667;42.726;23.252;2023-06-22T15:08:21;8.95;;;5.68;;
9260;SDS011;4667;42.726;23.252;2023-06-22T15:10:48;8.25;;;5.53;;
9260;SDS011;4667;42.726;23.252;2023-06-22T15:13:15;11.23;;;7.03;;
9260;SDS011;4667;42.726;23.252;2023-06-22T15:15:43;8.65;;;6.03;;
9260;SDS011;4667;42.726;23.252;2023-06-22T15:18:10;11.23;;;6.40;;
9260;SDS011;4667;42.726;23.252;2023-06-22T15:20:36;9.00;;;5.85;;
9260;SDS011;4667;42.726;23.252;2023-06-22T15:23:05;12.80;;;5.85;;
9260;SDS011;4667;42.726;23.252;2023-06-22T15:25:33;8.93;;;6.18;;
9260;SDS011;4667;42.726;23.252;2023-06-22T15:28:00;9.82;;;6.00;;
9260;SDS011;4667;42.726;23.252;2023-06-22T15:30:27;11.93;;;5.95;;
9260;SDS011;4667;42.726;23.252;2023-06-22T15:32:54;9.50;;;5.38;;
9260;SDS011;4667;42.726;23.252;2023-06-22T15:35:21;7.53;;;5.10;;
9260;SDS011;4667;42.726;23.252;2023-06-22T15:37:48;7.57;;;4.60;;
9260;SDS011;4667;42.726;23.252;2023-06-22T15:40:17;8.52;;;4.95;;
9260;SDS011;4667;42.726;23.252;2023-06-22T15:42:44;7.43;;;4.82;;
9260;SDS011;4667;42.726;23.252;2023-06-22T15:45:12;6.18;;;4.65;;
9260;SDS011;4667;42.726;23.252;2023-06-22T15:47:39;7.88;;;4.90;;
9260;SDS011;4667;42.726;23.252;2023-06-22T15:50:06;11.73;;;5.85;;
9260;SDS011;4667;42.726;23.252;2023-06-22T15:52:33;5.15;;;4.53;;
9260;SDS011;4667;42.726;23.252;2023-06-22T15:55:00;5.80;;;4.82;;
9260;SDS011;4667;42.726;23.252;2023-06-22T15:57:28;8.35;;;5.63;;
9260;SDS011;4667;42.726;23.252;2023-06-22T15:59:55;7.57;;;5.18;;
9260;SDS011;4667;42.726;23.252;2023-06-22T16:02:22;8.82;;;5.10;;
9260;SDS011;4667;42.726;23.252;2023-06-22T16:04:49;7.63;;;5.78;;
9260;SDS011;4667;42.726;23.252;2023-06-22T16:07:15;9.13;;;5.78;;
9260;SDS011;4667;42.726;23.252;2023-06-22T16:09:42;8.93;;;6.18;;
9260;SDS011;4667;42.726;23.252;2023-06-22T16:12:09;7.22;;;5.78;;
9260;SDS011;4667;42.726;23.252;2023-06-22T16:14:37;5.90;;;4.93;;
9260;SDS011;4667;42.726;23.252;2023-06-22T16:17:05;8.93;;;6.05;;
9260;SDS011;4667;42.726;23.252;2023-06-22T16:19:32;7.80;;;5.85;;
9260;SDS011;4667;42.726;23.252;2023-06-22T16:21:59;8.20;;;5.35;;
9260;SDS011;4667;42.726;23.252;2023-06-22T16:24:26;8.25;;;5.97;;
9260;SDS011;4667;42.726;23.252;2023-06-22T16:26:52;7.82;;;5.65;;
9260;SDS011;4667;42.726;23.252;2023-06-22T16:29:19;8.80;;;5.50;;
9260;SDS011;4667;42.726;23.252;2023-06-22T16:31:48;9.82;;;6.18;;
9260;SDS011;4667;42.726;23.252;2023-06-22T16:34:14;7.65;;;5.47;;